Arpin, Wisconsin
Current Conditions -  °F | °C
As of 2:03 AM on Thursday 29 Jan 2015 (Local Time) from KMFI Reporting Station
Haze Haze  
Wind Chill: 27°   Ceiling: 500
Heat Index: 27°   Visibility: 1.5mi
Dew Point: 24°   Wind: 0mph
Humidity: 89%   Direction: NA
Pressure: 29.78"   Gusts: NA
Location:  44.54°N, 90.04°W
Report Text: KMFI 290803Z AUTO 00000KT 1 1/2SM BR BKN005 OVC012 M03/M04 A2978 RMK AO2 T10281044
Loading
Personal Weather Stations






























Interactive Weather Map New forecast layout! Learn more

10-Day Weather Forecast

Advertisements
Track Severe Weather on mobile